createdAt,value
2022-09-03T00:00:25.361Z,18.60
2022-09-03T00:03:01.292Z,18.50
2022-09-03T00:05:38.198Z,18.50
2022-09-03T00:08:11.359Z,18.40
2022-09-03T00:10:46.737Z,18.40
2022-09-03T00:13:19.341Z,18.70
2022-09-03T00:15:47.466Z,18.80
2022-09-03T00:18:20.656Z,18.80
2022-09-03T00:20:55.205Z,18.40
2022-09-03T00:23:25.947Z,18.30
2022-09-03T00:25:59.905Z,18.30
2022-09-03T00:28:31.172Z,18.10
2022-09-03T00:31:11.127Z,18.10
2022-09-03T00:33:42.386Z,18.20
2022-09-03T00:36:17.595Z,18.40
2022-09-03T00:38:46.203Z,18.50
2022-09-03T00:41:30.317Z,18.50
2022-09-03T00:44:21.560Z,18.70
2022-09-03T00:47:00.143Z,18.80
2022-09-03T00:49:43.274Z,18.60
2022-09-03T00:52:23.304Z,18.50
2022-09-03T00:55:01.819Z,18.40
2022-09-03T00:57:39.751Z,18.40
2022-09-03T01:00:10.100Z,18.30
2022-09-03T01:02:52.810Z,18.40
2022-09-03T01:05:37.700Z,18.50
2022-09-03T01:08:22.175Z,18.60
2022-09-03T01:10:57.512Z,18.20
2022-09-03T01:13:34.956Z,18.10
2022-09-03T01:16:17.094Z,18.00
2022-09-03T01:18:51.441Z,18.20
2022-09-03T01:21:58.296Z,17.90
2022-09-03T01:25:01.892Z,17.70
2022-09-03T01:27:43.922Z,17.90
2022-09-03T01:30:18.436Z,18.10
2022-09-03T01:32:53.875Z,18.20
2022-09-03T01:35:30.493Z,18.30
2022-09-03T01:38:13.810Z,18.40
2022-09-03T01:40:51.869Z,18.50
2022-09-03T01:43:36.679Z,18.50
2022-09-03T01:46:14.026Z,18.50
2022-09-03T01:48:49.650Z,18.40
2022-09-03T01:51:22.219Z,18.30
2022-09-03T01:54:21.713Z,17.90
2022-09-03T01:57:35.371Z,18.00
2022-09-03T02:00:10.226Z,17.60
2022-09-03T02:02:41.104Z,17.50
2022-09-03T02:05:12.293Z,17.70
2022-09-03T02:07:42.943Z,17.60
2022-09-03T02:10:15.071Z,17.50
2022-09-03T02:12:47.721Z,17.40
2022-09-03T02:15:19.346Z,17.20
2022-09-03T02:17:50.812Z,17.30
2022-09-03T02:20:21.654Z,17.40
2022-09-03T02:22:50.780Z,17.50
2022-09-03T02:25:19.175Z,17.70
2022-09-03T02:27:49.379Z,18.00
2022-09-03T02:30:18.624Z,18.00
2022-09-03T02:32:48.208Z,18.20
2022-09-03T02:35:16.405Z,18.30
2022-09-03T02:37:44.480Z,18.40
2022-09-03T02:40:12.705Z,18.50
2022-09-03T02:42:40.747Z,18.70
2022-09-03T02:45:17.492Z,18.80
2022-09-03T02:47:49.952Z,18.70
2022-09-03T02:50:18.131Z,18.60
2022-09-03T02:52:46.138Z,18.00
2022-09-03T02:55:14.704Z,17.70
2022-09-03T02:57:42.708Z,17.70
2022-09-03T03:00:11.544Z,17.70
2022-09-03T03:02:39.749Z,17.70
2022-09-03T03:05:13.730Z,18.00
2022-09-03T03:07:42.426Z,18.20
2022-09-03T03:10:12.603Z,18.50
2022-09-03T03:12:40.618Z,18.40
2022-09-03T03:15:09.207Z,18.20
2022-09-03T03:17:37.288Z,18.00
2022-09-03T03:20:05.999Z,18.20
2022-09-03T03:22:35.407Z,18.20
2022-09-03T03:25:03.429Z,18.30
2022-09-03T03:27:31.474Z,18.40
2022-09-03T03:29:59.684Z,18.50
2022-09-03T03:32:28.231Z,18.40
2022-09-03T03:34:56.326Z,18.20
2022-09-03T03:37:24.312Z,18.20
2022-09-03T03:39:53.920Z,18.10
2022-09-03T03:42:22.024Z,18.10
2022-09-03T03:44:50.109Z,18.20
2022-09-03T03:47:18.322Z,18.40
2022-09-03T03:49:46.514Z,18.20
2022-09-03T03:52:14.599Z,18.10
2022-09-03T03:54:42.677Z,18.00
2022-09-03T03:57:12.540Z,18.00
2022-09-03T03:59:40.702Z,17.80
2022-09-03T04:02:08.889Z,17.40
2022-09-03T04:04:36.982Z,17.60
2022-09-03T04:07:06.304Z,17.70
2022-09-03T04:09:34.408Z,17.60
2022-09-03T04:12:03.838Z,17.40
2022-09-03T04:14:33.321Z,17.60
2022-09-03T04:17:02.447Z,17.60
2022-09-03T04:19:30.659Z,17.30
2022-09-03T04:21:58.797Z,17.20
2022-09-03T04:24:27.442Z,17.30
2022-09-03T04:26:55.503Z,17.20
2022-09-03T04:29:23.574Z,17.20
2022-09-03T04:32:22.173Z,17.30
2022-09-03T04:34:50.210Z,17.30
2022-09-03T04:37:19.848Z,17.30
2022-09-03T04:39:47.987Z,17.60
2022-09-03T04:42:16.015Z,17.80
2022-09-03T04:44:44.070Z,17.90
2022-09-03T04:47:13.486Z,17.90
2022-09-03T04:49:41.738Z,17.90
2022-09-03T04:52:10.039Z,18.10
2022-09-03T04:54:38.258Z,18.40
2022-09-03T04:57:06.412Z,18.60
2022-09-03T04:59:34.524Z,18.50
2022-09-03T05:02:03.034Z,18.50
2022-09-03T05:04:32.460Z,18.60
2022-09-03T05:07:00.632Z,18.60
2022-09-03T05:09:28.829Z,18.30
2022-09-03T05:11:56.885Z,17.70
2022-09-03T05:14:24.939Z,17.90
2022-09-03T05:16:53.494Z,17.80
2022-09-03T05:19:21.650Z,17.80
2022-09-03T05:21:51.040Z,17.90
2022-09-03T05:24:19.109Z,18.30
2022-09-03T05:26:47.229Z,18.20
2022-09-03T05:29:16.079Z,18.10
2022-09-03T05:31:44.198Z,18.30
2022-09-03T05:34:16.641Z,18.00
2022-09-03T05:36:49.850Z,17.90
2022-09-03T05:39:19.564Z,18.00
2022-09-03T05:41:50.545Z,18.10
2022-09-03T05:44:18.811Z,18.40
2022-09-03T05:46:46.904Z,18.30
2022-09-03T05:49:14.994Z,18.30
2022-09-03T05:51:43.717Z,18.50
2022-09-03T05:54:12.258Z,18.70
2022-09-03T05:56:42.552Z,18.60
2022-09-03T05:59:11.786Z,18.60
2022-09-03T06:01:43.978Z,18.50
2022-09-03T06:04:18.964Z,18.90
2022-09-03T06:06:48.976Z,19.00
2022-09-03T06:09:18.786Z,19.00
2022-09-03T06:11:50.243Z,18.90
2022-09-03T06:14:18.476Z,19.00
2022-09-03T06:16:49.626Z,19.10
2022-09-03T06:19:18.173Z,19.00
2022-09-03T06:21:47.723Z,19.00
2022-09-03T06:24:18.178Z,18.80
2022-09-03T06:26:48.064Z,18.60
2022-09-03T06:29:18.414Z,18.60
2022-09-03T06:31:46.757Z,18.80
2022-09-03T06:34:15.179Z,18.70
2022-09-03T06:36:43.897Z,18.70
2022-09-03T06:39:11.994Z,18.80
2022-09-03T06:41:40.225Z,18.90
2022-09-03T06:44:12.306Z,19.00
2022-09-03T06:46:43.022Z,19.40
2022-09-03T06:49:12.242Z,19.40
2022-09-03T06:51:40.697Z,19.30
2022-09-03T06:54:10.438Z,19.30
2022-09-03T06:56:41.010Z,19.40
2022-09-03T06:59:12.455Z,19.50
2022-09-03T07:01:43.725Z,19.30
2022-09-03T07:04:13.561Z,19.30
2022-09-03T07:06:43.226Z,19.20
2022-09-03T07:09:12.998Z,19.40
2022-09-03T07:11:47.165Z,19.40
2022-09-03T07:14:18.383Z,19.50
2022-09-03T07:16:47.108Z,19.50
2022-09-03T07:19:15.617Z,19.50
2022-09-03T07:21:49.736Z,19.50
2022-09-03T07:24:19.818Z,19.50
2022-09-03T07:26:48.971Z,19.80
2022-09-03T07:29:20.680Z,20.00
2022-09-03T07:31:52.997Z,20.20
2022-09-03T07:34:24.271Z,20.50
2022-09-03T07:36:53.956Z,20.30
2022-09-03T07:39:22.363Z,20.30
2022-09-03T07:41:50.624Z,20.50
2022-09-03T07:44:20.823Z,20.60
2022-09-03T07:46:50.853Z,20.40
2022-09-03T07:49:20.472Z,20.30
2022-09-03T07:51:50.777Z,20.40
2022-09-03T07:54:20.325Z,20.50
2022-09-03T07:56:48.651Z,20.50
2022-09-03T07:59:16.770Z,20.50
2022-09-03T08:01:46.231Z,20.40
2022-09-03T08:04:14.398Z,20.30
2022-09-03T08:06:42.949Z,20.40
2022-09-03T08:09:14.371Z,20.80
2022-09-03T08:11:44.421Z,20.80
2022-09-03T08:14:14.050Z,21.20
2022-09-03T08:16:43.060Z,21.40
2022-09-03T08:19:13.480Z,21.10
2022-09-03T08:21:42.613Z,21.00
2022-09-03T08:24:11.712Z,20.90
2022-09-03T08:26:46.186Z,21.40
2022-09-03T08:29:16.256Z,21.70
2022-09-03T08:31:44.912Z,22.90
2022-09-03T08:34:14.861Z,24.60
2022-09-03T08:36:43.046Z,25.00
2022-09-03T08:39:12.174Z,23.30
2022-09-03T08:41:58.517Z,22.90
2022-09-03T08:44:30.595Z,24.10
2022-09-03T08:47:03.203Z,24.70
2022-09-03T08:49:38.918Z,23.80
2022-09-03T08:52:19.054Z,23.50
2022-09-03T08:54:48.829Z,23.70
2022-09-03T08:57:20.694Z,23.90
2022-09-03T08:59:56.998Z,23.70
2022-09-03T09:02:36.660Z,24.30
2022-09-03T09:05:14.319Z,24.80
2022-09-03T09:07:53.339Z,26.20
2022-09-03T09:10:29.267Z,26.80
2022-09-03T09:13:09.051Z,27.00
2022-09-03T09:15:47.275Z,26.80
2022-09-03T09:18:24.640Z,27.10
2022-09-03T09:20:59.151Z,28.40
2022-09-03T09:23:31.167Z,31.70
2022-09-03T09:26:02.397Z,33.90
2022-09-03T09:28:34.882Z,33.20
2022-09-03T09:31:04.724Z,32.80
2022-09-03T09:33:34.631Z,30.60
2022-09-03T09:36:09.361Z,30.90
2022-09-03T09:38:39.205Z,30.30
2022-09-03T09:41:12.051Z,28.10
2022-09-03T09:43:40.583Z,27.80
2022-09-03T09:46:13.475Z,26.80
2022-09-03T09:48:50.094Z,27.40
2022-09-03T09:51:22.509Z,26.70
2022-09-03T09:54:02.383Z,26.60
2022-09-03T09:56:30.907Z,25.60
2022-09-03T09:59:06.328Z,25.60
2022-09-03T10:01:35.543Z,24.70
2022-09-03T10:04:11.599Z,24.50
2022-09-03T10:06:57.234Z,25.50
2022-09-03T10:09:31.506Z,25.40
2022-09-03T10:12:14.642Z,26.80
2022-09-03T10:14:47.613Z,26.30
2022-09-03T10:17:26.576Z,26.00
2022-09-03T10:20:32.091Z,26.70
2022-09-03T10:23:09.691Z,27.20
2022-09-03T10:25:50.230Z,25.90
2022-09-03T10:28:19.374Z,25.70
2022-09-03T10:31:16.132Z,26.40
2022-09-03T10:33:50.980Z,26.60
2022-09-03T10:36:23.183Z,26.40
2022-09-03T10:39:00.122Z,26.10
2022-09-03T10:41:42.185Z,26.50
2022-09-03T10:44:35.654Z,26.30
2022-09-03T10:47:19.653Z,27.80
2022-09-03T10:49:55.786Z,28.90
2022-09-03T10:52:32.624Z,28.80
2022-09-03T10:55:16.218Z,27.70
2022-09-03T10:57:52.160Z,27.50
2022-09-03T11:00:23.740Z,28.00
2022-09-03T11:03:23.575Z,28.20
2022-09-03T11:06:03.002Z,28.70
2022-09-03T11:08:35.120Z,28.40
2022-09-03T11:11:12.804Z,30.40
2022-09-03T11:13:45.972Z,29.90
2022-09-03T11:16:20.047Z,31.50
2022-09-03T11:18:52.293Z,32.30
2022-09-03T11:21:24.715Z,33.60
2022-09-03T11:24:00.514Z,33.20
2022-09-03T11:26:30.767Z,33.00
2022-09-03T11:29:05.895Z,32.80
2022-09-03T11:31:48.084Z,31.70
2022-09-03T11:34:32.450Z,31.30
2022-09-03T11:37:16.665Z,29.80
2022-09-03T11:39:44.813Z,29.60
2022-09-03T11:42:28.720Z,30.60
2022-09-03T11:45:12.761Z,30.40
2022-09-03T11:47:43.538Z,29.70
2022-09-03T11:50:21.671Z,29.80
2022-09-03T11:52:53.422Z,29.00
2022-09-03T11:55:43.166Z,30.30
2022-09-03T11:58:18.596Z,31.60
2022-09-03T12:00:46.678Z,33.20
2022-09-03T12:03:18.049Z,30.30
2022-09-03T12:05:53.795Z,31.40
2022-09-03T12:08:43.585Z,31.60
2022-09-03T12:11:30.107Z,32.10
2022-09-03T12:14:11.623Z,32.00
2022-09-03T12:17:05.589Z,31.20
2022-09-03T12:19:40.794Z,30.40
2022-09-03T12:22:15.007Z,30.10
2022-09-03T12:24:44.970Z,30.40
2022-09-03T12:27:24.172Z,30.40
2022-09-03T12:29:58.028Z,34.10
2022-09-03T12:32:27.442Z,34.10
2022-09-03T12:34:55.683Z,31.30
2022-09-03T12:40:22.365Z,32.70
2022-09-03T12:42:51.731Z,35.00
2022-09-03T12:45:24.030Z,33.40
2022-09-03T12:47:53.301Z,33.90
2022-09-03T12:50:23.564Z,28.90
2022-09-03T12:52:55.008Z,29.40
2022-09-03T12:55:30.467Z,29.60
2022-09-03T12:58:05.132Z,31.10
2022-09-03T13:00:37.786Z,31.60
2022-09-03T13:03:09.187Z,30.50
2022-09-03T13:05:44.653Z,30.70
2022-09-03T13:08:19.431Z,30.20
2022-09-03T13:10:51.613Z,30.30
2022-09-03T13:13:24.612Z,30.70
2022-09-03T13:16:24.880Z,30.90
2022-09-03T13:19:02.180Z,30.00
2022-09-03T13:21:42.813Z,29.40
2022-09-03T13:24:30.029Z,29.50
2022-09-03T13:27:08.436Z,30.70
2022-09-03T13:29:48.060Z,32.00
2022-09-03T13:32:30.386Z,31.30
2022-09-03T13:35:02.939Z,30.40
2022-09-03T13:37:38.660Z,30.10
2022-09-03T13:40:15.961Z,30.80
2022-09-03T13:42:50.773Z,28.80
2022-09-03T13:45:30.993Z,29.40
2022-09-03T13:48:26.482Z,29.30
2022-09-03T13:51:03.540Z,28.30
2022-09-03T13:53:43.265Z,28.10
2022-09-03T13:56:22.326Z,28.60
2022-09-03T13:58:57.250Z,29.00
2022-09-03T14:01:29.234Z,29.40
2022-09-03T14:04:01.739Z,30.00
2022-09-03T14:06:42.053Z,28.70
2022-09-03T14:09:19.893Z,28.80
2022-09-03T14:11:56.296Z,28.10
2022-09-03T14:14:38.571Z,28.20
2022-09-03T14:17:13.727Z,28.20
2022-09-03T14:19:49.682Z,28.10
2022-09-03T14:22:23.085Z,28.00
2022-09-03T14:24:54.993Z,27.90
2022-09-03T14:27:28.043Z,28.00
2022-09-03T14:30:01.065Z,27.80
2022-09-03T14:32:42.453Z,27.40
2022-09-03T14:35:32.722Z,27.10
2022-09-03T14:38:32.413Z,26.20
2022-09-03T14:41:06.870Z,26.10
2022-09-03T14:44:04.476Z,26.00
2022-09-03T14:46:43.150Z,25.90
2022-09-03T14:49:43.983Z,26.10
2022-09-03T14:52:45.385Z,26.10
2022-09-03T14:55:39.937Z,26.10
2022-09-03T14:58:22.539Z,25.60
2022-09-03T15:01:00.343Z,25.10
2022-09-03T15:04:07.337Z,24.80
2022-09-03T15:06:51.060Z,25.10
2022-09-03T15:09:34.820Z,25.40
2022-09-03T15:12:11.368Z,25.80
2022-09-03T15:14:47.503Z,26.30
2022-09-03T15:17:27.603Z,26.70
2022-09-03T15:20:18.009Z,27.50
2022-09-03T15:23:05.786Z,28.00
2022-09-03T15:25:49.417Z,28.40
2022-09-03T15:28:26.054Z,28.00
2022-09-03T15:30:59.881Z,27.00
2022-09-03T15:33:35.093Z,27.30
2022-09-03T15:36:17.645Z,28.20
2022-09-03T15:38:51.476Z,29.20
2022-09-03T15:41:31.051Z,29.70
2022-09-03T15:44:01.841Z,30.00
2022-09-03T15:46:48.478Z,30.00
2022-09-03T15:49:28.377Z,29.70
2022-09-03T15:52:07.465Z,29.60
2022-09-03T15:54:44.035Z,28.60
2022-09-03T15:57:19.454Z,29.30
2022-09-03T15:59:54.507Z,29.60
2022-09-03T16:02:29.239Z,30.10
2022-09-03T16:05:10.005Z,29.40
2022-09-03T16:07:55.306Z,28.40
2022-09-03T16:10:33.824Z,27.70
2022-09-03T16:13:11.032Z,27.70
2022-09-03T16:15:48.222Z,27.80
2022-09-03T16:18:25.715Z,27.50
2022-09-03T16:20:59.150Z,27.20
2022-09-03T16:23:32.555Z,27.20
2022-09-03T16:26:08.733Z,27.20
2022-09-03T16:28:44.641Z,27.30
2022-09-03T16:31:22.484Z,27.50
2022-09-03T16:34:01.649Z,27.50
2022-09-03T16:36:40.552Z,27.80
2022-09-03T16:39:17.484Z,27.80
2022-09-03T16:41:52.023Z,27.60
2022-09-03T16:44:29.625Z,27.00
2022-09-03T16:47:05.097Z,26.60
2022-09-03T16:49:46.749Z,26.30
2022-09-03T16:52:37.611Z,26.20
2022-09-03T16:55:19.011Z,26.30
2022-09-03T16:57:59.052Z,26.20
2022-09-03T17:00:44.423Z,26.20
2022-09-03T17:03:31.412Z,26.00
2022-09-03T17:06:17.925Z,26.00
2022-09-03T17:08:54.073Z,26.10
2022-09-03T17:11:58.297Z,25.80
2022-09-03T17:14:48.267Z,25.40
2022-09-03T17:17:31.998Z,25.30
2022-09-03T17:20:05.183Z,25.20
2022-09-03T17:22:43.302Z,25.20
2022-09-03T17:25:22.408Z,24.90
2022-09-03T17:27:53.173Z,24.80
2022-09-03T17:30:28.439Z,24.80
2022-09-03T17:33:32.696Z,24.80
2022-09-03T17:36:13.163Z,24.60
2022-09-03T17:39:26.190Z,24.40
2022-09-03T17:41:55.966Z,24.20
2022-09-03T17:44:47.228Z,24.00
2022-09-03T17:47:46.784Z,23.80
2022-09-03T17:50:24.941Z,23.50
2022-09-03T17:52:56.837Z,23.40
2022-09-03T17:55:30.855Z,23.40
2022-09-03T17:58:05.396Z,23.20
2022-09-03T18:00:38.805Z,23.10
2022-09-03T18:03:14.641Z,23.00
2022-09-03T18:05:49.705Z,22.90
2022-09-03T18:08:23.035Z,22.80
2022-09-03T18:11:01.825Z,22.70
2022-09-03T18:13:44.128Z,22.70
2022-09-03T18:16:16.941Z,22.60
2022-09-03T18:18:47.792Z,22.40
2022-09-03T18:21:39.997Z,22.30
2022-09-03T18:24:42.202Z,22.20
2022-09-03T18:27:33.530Z,22.10
2022-09-03T18:30:23.421Z,21.90
2022-09-03T18:33:09.325Z,21.80
2022-09-03T18:35:55.348Z,21.70
2022-09-03T18:38:46.239Z,21.60
2022-09-03T18:41:53.436Z,21.50
2022-09-03T18:44:48.556Z,21.40
2022-09-03T18:48:02.197Z,21.20
2022-09-03T18:50:57.851Z,21.20
2022-09-03T18:53:53.919Z,21.20
2022-09-03T18:56:50.870Z,21.10
2022-09-03T18:59:50.564Z,21.10
2022-09-03T19:02:47.524Z,21.00
2022-09-03T19:05:41.629Z,21.00
2022-09-03T19:08:38.457Z,21.00
2022-09-03T19:11:36.205Z,21.10
2022-09-03T19:14:28.174Z,21.10
2022-09-03T19:17:22.176Z,21.20
2022-09-03T19:20:20.970Z,21.10
2022-09-03T19:23:06.378Z,21.00
2022-09-03T19:25:51.678Z,21.00
2022-09-03T19:28:40.450Z,20.80
2022-09-03T19:31:49.990Z,20.70
2022-09-03T19:35:04.072Z,20.50
2022-09-03T19:37:55.879Z,20.50
2022-09-03T19:41:00.983Z,20.40
2022-09-03T19:43:55.779Z,20.30
2022-09-03T19:46:51.898Z,20.10
2022-09-03T19:49:50.395Z,20.10
2022-09-03T19:52:48.741Z,20.10
2022-09-03T19:55:40.208Z,20.10
2022-09-03T19:58:42.457Z,19.90
2022-09-03T20:01:31.744Z,19.90
2022-09-03T20:04:19.623Z,19.70
2022-09-03T20:07:06.029Z,19.80
2022-09-03T20:09:56.588Z,19.80
2022-09-03T20:12:27.087Z,19.50
2022-09-03T20:14:55.305Z,19.50
2022-09-03T20:17:37.256Z,19.50
2022-09-03T20:20:16.571Z,19.30
2022-09-03T20:22:53.329Z,19.20
2022-09-03T20:25:56.996Z,18.90
2022-09-03T20:28:37.247Z,18.70
2022-09-03T20:31:16.206Z,18.50
2022-09-03T20:34:04.765Z,18.50
2022-09-03T20:36:42.385Z,18.50
2022-09-03T20:39:30.411Z,18.50
2022-09-03T20:42:13.294Z,18.20
2022-09-03T20:44:53.750Z,18.30
2022-09-03T20:47:52.768Z,18.40
2022-09-03T20:50:40.147Z,18.40
2022-09-03T20:53:21.155Z,18.50
2022-09-03T20:55:53.056Z,18.50
2022-09-03T20:58:31.817Z,18.40
2022-09-03T21:01:06.334Z,18.30
2022-09-03T21:03:43.010Z,18.30
2022-09-03T21:06:27.490Z,18.30
2022-09-03T21:09:17.642Z,18.20
2022-09-03T21:11:51.397Z,17.80
2022-09-03T21:14:33.761Z,17.80
2022-09-03T21:17:21.115Z,17.80
2022-09-03T21:20:01.701Z,17.70
2022-09-03T21:22:39.751Z,17.60
2022-09-03T21:25:14.043Z,17.60
2022-09-03T21:27:47.573Z,17.70
2022-09-03T21:30:18.352Z,17.90
2022-09-03T21:32:51.593Z,18.00
2022-09-03T21:35:26.251Z,18.00
2022-09-03T21:38:09.919Z,17.80
2022-09-03T21:40:46.779Z,17.80
2022-09-03T21:43:20.294Z,17.50
2022-09-03T21:45:53.077Z,17.30
2022-09-03T21:48:26.227Z,17.70
2022-09-03T21:50:57.271Z,18.00
2022-09-03T21:53:32.699Z,18.00
2022-09-03T21:56:37.889Z,17.80
2022-09-03T21:59:11.657Z,17.70
2022-09-03T22:01:52.088Z,17.60
2022-09-03T22:04:21.155Z,17.70
2022-09-03T22:06:55.495Z,17.60
2022-09-03T22:09:32.969Z,17.50
2022-09-03T22:12:08.278Z,17.70
2022-09-03T22:14:43.102Z,17.30
2022-09-03T22:17:16.809Z,17.00
2022-09-03T22:19:45.807Z,17.10
2022-09-03T22:22:19.351Z,17.20
2022-09-03T22:24:56.199Z,17.40
2022-09-03T22:27:30.623Z,17.50
2022-09-03T22:30:07.026Z,17.40
2022-09-03T22:32:55.387Z,17.40
2022-09-03T22:35:42.821Z,17.20
2022-09-03T22:38:25.173Z,17.30
2022-09-03T22:41:02.763Z,16.90
2022-09-03T22:43:39.528Z,16.50
2022-09-03T22:46:12.976Z,16.40
2022-09-03T22:49:15.043Z,16.60
2022-09-03T22:52:06.935Z,16.90
2022-09-03T22:54:47.324Z,17.10
2022-09-03T22:57:20.143Z,17.00
2022-09-03T22:59:57.893Z,16.70
2022-09-03T23:02:29.362Z,16.50
2022-09-03T23:05:03.153Z,16.70
2022-09-03T23:07:40.129Z,16.90
2022-09-03T23:10:12.717Z,16.80
2022-09-03T23:13:04.049Z,16.80
2022-09-03T23:15:33.647Z,16.90
2022-09-03T23:18:08.888Z,16.60
2022-09-03T23:20:40.282Z,16.70
2022-09-03T23:23:15.676Z,16.80
2022-09-03T23:25:48.793Z,16.90
2022-09-03T23:28:25.245Z,16.80
2022-09-03T23:30:54.561Z,16.80
2022-09-03T23:33:22.695Z,16.70
2022-09-03T23:36:04.649Z,16.60
2022-09-03T23:38:41.831Z,16.10
2022-09-03T23:41:16.111Z,15.90
2022-09-03T23:44:09.960Z,16.00
2022-09-03T23:46:42.574Z,15.60
2022-09-03T23:49:35.135Z,15.90
2022-09-03T23:52:40.728Z,16.30
2022-09-03T23:55:20.087Z,16.30
2022-09-03T23:57:54.229Z,16.20
